createdAt,value
2019-05-17T00:02:18.937Z,95252.08
2019-05-17T00:05:01.157Z,95247.25
2019-05-17T00:07:50.927Z,95237.36
2019-05-17T00:10:33.746Z,95236.00
2019-05-17T00:13:23.475Z,95215.26
2019-05-17T00:16:07.173Z,95225.71
2019-05-17T00:21:59.218Z,95225.12
2019-05-17T00:24:41.718Z,95235.16
2019-05-17T00:27:31.471Z,95203.95
2019-05-17T00:30:13.771Z,95224.52
2019-05-17T00:33:03.507Z,95223.94
2019-05-17T00:35:53.234Z,95218.74
2019-05-17T00:38:48.000Z,95213.91
2019-05-17T00:41:27.628Z,95214.86
2019-05-17T00:44:17.608Z,95213.69
2019-05-17T00:47:19.980Z,95209.46
2019-05-17T00:50:02.704Z,95187.39
2019-05-17T00:52:52.456Z,95174.77
2019-05-17T00:55:36.242Z,95178.05
2019-05-17T00:58:26.290Z,95197.02
2019-05-17T01:01:09.573Z,95195.85
2019-05-17T01:03:59.354Z,95195.88
2019-05-17T01:06:41.376Z,95187.73
2019-05-17T01:09:31.072Z,95189.48
2019-05-17T01:12:13.208Z,95191.61
2019-05-17T01:17:56.990Z,95166.84
2019-05-17T01:20:39.399Z,95187.94
2019-05-17T01:23:29.320Z,95183.72
2019-05-17T01:26:19.044Z,95181.77
2019-05-17T01:29:08.791Z,95181.41
2019-05-17T01:31:51.324Z,95166.53
2019-05-17T01:34:41.124Z,95173.91
2019-05-17T01:37:30.903Z,95157.05
2019-05-17T01:40:20.640Z,95174.84
2019-05-17T01:43:23.206Z,95169.09
2019-05-17T01:46:06.658Z,95166.38
2019-05-17T01:48:58.392Z,95163.07
2019-05-17T01:51:48.155Z,95158.45
2019-05-17T01:54:37.948Z,95159.98
2019-05-17T01:57:27.995Z,95152.80
2019-05-17T02:03:42.030Z,95148.58
2019-05-17T02:06:26.986Z,95146.28
2019-05-17T02:09:32.353Z,95135.43
2019-05-17T02:12:00.292Z,95141.62
2019-05-17T02:14:49.993Z,95142.91
2019-05-17T02:17:32.798Z,95143.28
2019-05-17T02:20:22.620Z,95118.53
2019-05-17T02:23:13.133Z,95141.95
2019-05-17T02:26:03.398Z,95136.33
2019-05-17T02:28:45.985Z,95140.20
2019-05-17T02:31:36.384Z,95136.52
2019-05-17T02:34:26.199Z,95136.55
2019-05-17T02:37:15.965Z,95125.91
2019-05-17T02:43:23.353Z,95134.36
2019-05-17T02:46:13.574Z,95135.34
2019-05-17T02:48:56.033Z,95133.22
2019-05-17T02:51:59.118Z,95124.36
2019-05-17T02:54:43.732Z,95126.05
2019-05-17T02:57:25.642Z,95117.20
2019-05-17T03:00:15.688Z,95124.36
2019-05-17T03:03:05.469Z,95118.16
2019-05-17T03:05:55.205Z,95117.77
2019-05-17T03:08:37.565Z,95110.44
2019-05-17T03:11:27.282Z,95110.84
2019-05-17T03:14:12.471Z,95084.11
2019-05-17T03:17:03.322Z,95119.14
2019-05-17T03:19:45.897Z,95107.33
2019-05-17T03:22:35.750Z,95085.84
2019-05-17T03:28:28.209Z,95103.22
2019-05-17T03:31:18.196Z,95104.22
2019-05-17T03:34:06.120Z,95085.27
2019-05-17T03:36:56.368Z,95111.98
2019-05-17T03:39:39.045Z,95113.13
2019-05-17T03:42:28.820Z,95121.44
2019-05-17T03:45:15.467Z,95096.47
2019-05-17T03:48:05.450Z,95128.76
2019-05-17T03:50:47.608Z,95130.89
2019-05-17T03:53:37.389Z,95120.30
2019-05-17T03:56:22.423Z,95098.44
2019-05-17T03:59:12.955Z,95116.63
2019-05-17T04:01:56.208Z,95117.94
2019-05-17T04:04:45.906Z,95093.77
2019-05-17T04:07:27.825Z,95113.70
2019-05-17T04:10:17.642Z,95116.22
2019-05-17T04:12:59.855Z,95114.87
2019-05-17T04:15:52.773Z,95093.63
2019-05-17T04:18:34.266Z,95084.52
2019-05-17T04:21:23.994Z,95112.38
2019-05-17T04:24:06.836Z,95115.13
2019-05-17T04:26:56.575Z,95115.71
2019-05-17T04:29:42.408Z,95117.06
2019-05-17T04:32:32.906Z,95124.44
2019-05-17T04:35:14.612Z,95124.78
2019-05-17T04:38:04.594Z,95117.60
2019-05-17T04:40:53.468Z,95109.65
2019-05-17T04:43:42.459Z,95110.38
2019-05-17T04:46:25.703Z,95112.03
2019-05-17T04:49:15.741Z,95119.19
2019-05-17T04:52:05.498Z,95109.09
2019-05-17T04:54:47.504Z,95095.31
2019-05-17T04:57:37.313Z,95113.06
2019-05-17T05:00:27.126Z,95114.35
2019-05-17T05:03:16.939Z,95102.34
2019-05-17T05:06:07.004Z,95112.88
2019-05-17T05:08:57.178Z,95112.32
2019-05-17T05:11:59.466Z,95109.78
2019-05-17T05:14:32.872Z,95114.19
2019-05-17T05:17:22.640Z,95115.84
2019-05-17T05:20:05.697Z,95112.43
2019-05-17T05:22:55.487Z,95110.22
2019-05-17T05:25:45.301Z,95102.70
2019-05-17T05:28:49.618Z,95110.48
2019-05-17T05:31:32.915Z,95078.52
2019-05-17T05:34:23.449Z,95104.70
2019-05-17T05:37:05.823Z,95100.86
2019-05-17T05:39:55.576Z,95100.87
2019-05-17T05:42:39.605Z,95102.18
2019-05-17T05:45:29.353Z,95102.92
2019-05-17T05:48:12.792Z,95104.67
2019-05-17T05:51:04.930Z,95097.89
2019-05-17T05:53:47.293Z,95100.62
2019-05-17T05:56:37.038Z,95106.73
2019-05-17T05:59:19.586Z,95101.30
2019-05-17T06:02:09.316Z,95110.02
2019-05-17T06:04:51.925Z,95112.48
2019-05-17T06:07:42.003Z,95104.36
2019-05-17T06:10:26.096Z,95103.39
2019-05-17T06:16:11.804Z,95109.69
2019-05-17T06:18:53.993Z,95102.05
2019-05-17T06:21:43.893Z,95107.65
2019-05-17T06:24:33.645Z,95108.55
2019-05-17T06:27:15.754Z,95106.24
2019-05-17T06:30:05.679Z,95108.84
2019-05-17T06:35:49.214Z,95113.09
2019-05-17T06:38:39.087Z,95102.56
2019-05-17T06:41:28.982Z,95102.44
2019-05-17T06:44:18.838Z,95098.52
2019-05-17T06:47:08.595Z,95101.84
2019-05-17T06:49:58.387Z,95082.41
2019-05-17T06:52:48.189Z,95074.27
2019-05-17T06:55:38.003Z,95075.72
2019-05-17T06:58:27.970Z,95096.68
2019-05-17T07:01:19.717Z,95092.11
2019-05-17T07:04:10.264Z,95082.25
2019-05-17T07:07:13.300Z,95091.01
2019-05-17T07:10:03.195Z,95083.31
2019-05-17T07:12:55.974Z,95079.92
2019-05-17T07:15:46.935Z,95075.34
2019-05-17T07:18:21.378Z,95076.51
2019-05-17T07:21:11.145Z,95058.41
2019-05-17T07:23:54.013Z,95063.00
2019-05-17T07:26:43.763Z,95073.80
2019-05-17T07:29:26.245Z,95067.94
2019-05-17T07:32:15.996Z,95059.87
2019-05-17T07:35:00.110Z,95062.31
2019-05-17T07:37:50.248Z,95036.13
2019-05-17T07:40:34.733Z,95055.53
2019-05-17T07:43:24.883Z,95051.72
2019-05-17T07:46:09.478Z,95045.59
2019-05-17T07:49:00.372Z,95042.91
2019-05-17T07:51:42.892Z,95050.75
2019-05-17T07:54:32.606Z,95044.28
2019-05-17T07:57:20.691Z,95037.70
2019-05-17T08:00:11.163Z,95037.77
2019-05-17T08:02:53.132Z,95038.35
2019-05-17T08:05:42.844Z,95037.58
2019-05-17T08:08:25.240Z,95032.61
2019-05-17T08:11:14.971Z,95029.48
2019-05-17T08:13:59.634Z,95028.48
2019-05-17T08:16:50.173Z,95017.27
2019-05-17T08:19:33.100Z,95008.37
2019-05-17T08:25:23.904Z,95008.46
2019-05-17T08:28:13.672Z,95014.95
2019-05-17T08:30:56.551Z,95008.20
2019-05-17T08:33:46.298Z,95005.11
2019-05-17T08:36:29.929Z,94988.27
2019-05-17T08:39:19.894Z,95001.61
2019-05-17T08:42:03.429Z,94999.78
2019-05-17T08:44:53.187Z,94966.14
2019-05-17T08:47:35.375Z,94988.24
2019-05-17T08:50:25.118Z,94971.96
2019-05-17T08:53:07.045Z,94993.91
2019-05-17T08:55:56.800Z,94999.14
2019-05-17T08:58:40.372Z,94974.05
2019-05-17T09:01:30.345Z,94985.13
2019-05-17T09:04:12.752Z,94988.46
2019-05-17T09:07:03.219Z,94981.14
2019-05-17T09:09:46.964Z,94975.23
2019-05-17T09:12:36.695Z,94977.33
2019-05-17T09:15:21.449Z,94966.56
2019-05-17T09:18:11.178Z,94952.23
2019-05-17T09:20:53.148Z,94961.11
2019-05-17T09:23:42.863Z,94962.16
2019-05-17T09:26:25.141Z,94958.06
2019-05-17T09:29:14.874Z,94943.38
2019-05-17T09:31:59.800Z,94959.75
2019-05-17T09:34:49.824Z,94947.07
2019-05-17T09:37:33.011Z,94936.34
2019-05-17T09:40:22.763Z,94954.24
2019-05-17T09:43:05.076Z,94952.48
2019-05-17T09:45:54.781Z,94952.69
2019-05-17T09:48:39.505Z,94948.72
2019-05-17T09:51:30.293Z,94944.38
2019-05-17T09:54:12.717Z,94924.55
2019-05-17T09:57:02.465Z,94941.23
2019-05-17T09:59:45.301Z,94938.77
2019-05-17T10:02:35.039Z,94915.31
2019-05-17T10:05:19.971Z,94928.81
2019-05-17T10:08:10.873Z,94925.06
2019-05-17T10:11:04.938Z,94917.84
2019-05-17T10:13:45.005Z,94918.81
2019-05-17T10:16:34.777Z,94917.22
2019-05-17T10:19:16.862Z,94920.36
2019-05-17T10:22:06.677Z,94921.30
2019-05-17T10:24:56.599Z,94886.59
2019-05-17T10:28:00.676Z,94910.89
2019-05-17T10:30:30.378Z,94910.58
2019-05-17T10:33:20.279Z,94904.69
2019-05-17T10:36:10.050Z,94910.77
2019-05-17T10:38:59.805Z,94917.23
2019-05-17T10:41:50.126Z,94920.80
2019-05-17T10:44:46.277Z,94905.88
2019-05-17T10:47:40.651Z,94913.55
2019-05-17T10:50:22.783Z,94913.59
2019-05-17T10:53:31.614Z,94914.85
2019-05-17T10:56:14.470Z,94917.14
2019-05-17T11:02:00.219Z,94908.90
2019-05-17T11:04:50.722Z,94914.84
2019-05-17T11:07:34.335Z,94915.13
2019-05-17T11:10:24.052Z,94887.58
2019-05-17T11:13:13.813Z,94900.81
2019-05-17T11:15:56.472Z,94882.94
2019-05-17T11:19:08.629Z,94903.72
2019-05-17T11:21:49.983Z,94897.56
2019-05-17T11:24:58.856Z,94878.89
2019-05-17T11:28:01.386Z,94874.44
2019-05-17T11:30:43.852Z,94871.19
2019-05-17T11:33:34.179Z,94872.35
2019-05-17T11:36:17.325Z,94892.41
2019-05-17T11:39:07.612Z,94893.14
2019-05-17T11:41:49.583Z,94884.66
2019-05-17T11:44:39.330Z,94886.30
2019-05-17T11:47:23.139Z,94878.61
2019-05-17T11:50:13.086Z,94882.25
2019-05-17T11:52:55.748Z,94868.28
2019-05-17T11:55:45.462Z,94883.00
2019-05-17T11:58:29.902Z,94879.95
2019-05-17T12:01:19.786Z,94868.94
2019-05-17T12:04:02.991Z,94874.42
2019-05-17T12:06:53.376Z,94869.27
2019-05-17T12:09:37.831Z,94863.39
2019-05-17T12:12:28.290Z,94867.91
2019-05-17T12:15:18.100Z,94867.26
2019-05-17T12:18:07.931Z,94862.94
2019-05-17T12:20:58.259Z,94858.53
2019-05-17T12:23:48.686Z,94838.52
2019-05-17T12:26:57.531Z,94860.48
2019-05-17T12:29:47.944Z,94860.33
2019-05-17T12:32:37.866Z,94855.64
2019-05-17T12:35:47.299Z,94861.14
2019-05-17T12:41:33.592Z,94848.78
2019-05-17T12:44:23.395Z,94848.16
2019-05-17T12:47:06.839Z,94845.42
2019-05-17T12:49:57.159Z,94849.13
2019-05-17T12:52:39.581Z,94841.41
2019-05-17T12:55:29.968Z,94828.81
2019-05-17T12:58:13.655Z,94838.81
2019-05-17T13:01:04.073Z,94834.00
2019-05-17T13:03:46.631Z,94833.28
2019-05-17T13:06:36.914Z,94812.75
2019-05-17T13:09:20.169Z,94806.83
2019-05-17T13:12:10.560Z,94831.20
2019-05-17T13:14:52.975Z,94826.02
2019-05-17T13:18:02.435Z,94827.16
2019-05-17T13:20:45.969Z,94814.56
2019-05-17T13:23:36.229Z,94827.41
2019-05-17T13:26:19.452Z,94812.02
2019-05-17T13:29:09.181Z,94804.25
2019-05-17T13:31:52.206Z,94818.44
2019-05-17T13:34:42.850Z,94819.32
2019-05-17T13:37:25.767Z,94817.93
2019-05-17T13:40:16.054Z,94815.50
2019-05-17T13:42:58.579Z,94817.94
2019-05-17T13:45:48.923Z,94814.20
2019-05-17T13:48:39.229Z,94813.28
2019-05-17T13:51:22.343Z,94808.31
2019-05-17T13:54:12.704Z,94809.56
2019-05-17T13:57:03.173Z,94805.48
2019-05-17T13:59:57.038Z,94804.36
2019-05-17T14:02:46.756Z,94804.63
2019-05-17T14:05:29.970Z,94802.52
2019-05-17T14:08:20.624Z,94799.91
2019-05-17T14:11:10.945Z,94804.37
2019-05-17T14:13:54.613Z,94791.96
2019-05-17T14:16:37.321Z,94798.27
2019-05-17T14:19:27.684Z,94796.21
2019-05-17T14:25:05.950Z,94787.72
2019-05-17T14:27:57.051Z,94765.30
2019-05-17T14:30:40.813Z,94791.91
2019-05-17T14:33:31.216Z,94789.91
2019-05-17T14:36:14.805Z,94789.28
2019-05-17T14:42:01.648Z,94786.80
2019-05-17T14:44:52.005Z,94787.52
2019-05-17T14:47:42.397Z,94787.02
2019-05-17T14:50:32.767Z,94775.16
2019-05-17T14:53:23.218Z,94791.42
2019-05-17T14:56:13.603Z,94786.30
2019-05-17T14:59:23.064Z,94783.26
2019-05-17T15:02:13.668Z,94792.32
2019-05-17T15:05:04.019Z,94785.75
2019-05-17T15:07:54.374Z,94784.50
2019-05-17T15:10:44.808Z,94783.98
2019-05-17T15:13:54.247Z,94780.14
2019-05-17T15:16:44.818Z,94755.52
2019-05-17T15:19:28.294Z,94747.27
2019-05-17T15:22:18.656Z,94778.40
2019-05-17T15:25:22.156Z,94773.63
2019-05-17T15:28:06.374Z,94769.52
2019-05-17T15:30:56.647Z,94750.97
2019-05-17T15:33:40.146Z,94769.55
2019-05-17T15:36:30.464Z,94766.34
2019-05-17T15:39:15.642Z,94758.12
2019-05-17T15:42:05.911Z,94745.05
2019-05-17T15:44:48.746Z,94764.05
2019-05-17T15:47:39.068Z,94756.09
2019-05-17T15:50:22.188Z,94759.10
2019-05-17T15:53:12.541Z,94758.63
2019-05-17T15:55:56.596Z,94755.00
2019-05-17T15:58:46.984Z,94748.25
2019-05-17T16:01:37.451Z,94762.07
2019-05-17T16:07:10.456Z,94748.57
2019-05-17T16:10:00.778Z,94740.80
2019-05-17T16:13:01.616Z,94742.05
2019-05-17T16:15:40.157Z,94744.46
2019-05-17T16:18:23.558Z,94741.84
2019-05-17T16:24:16.032Z,94737.65
2019-05-17T16:27:06.526Z,94744.11
2019-05-17T16:29:49.101Z,94741.16
2019-05-17T16:32:39.410Z,94720.64
2019-05-17T16:35:22.533Z,94743.73
2019-05-17T16:38:13.000Z,94726.80
2019-05-17T16:40:58.127Z,94744.89
2019-05-17T16:43:48.505Z,94723.88
2019-05-17T16:46:33.105Z,94740.22
2019-05-17T16:49:23.416Z,94726.29
2019-05-17T16:52:07.879Z,94733.41
2019-05-17T16:54:58.199Z,94736.49
2019-05-17T16:57:41.601Z,94738.14
2019-05-17T17:03:48.137Z,94727.90
2019-05-17T17:06:38.668Z,94723.27
2019-05-17T17:09:28.997Z,94726.39
2019-05-17T17:12:18.849Z,94724.95
2019-05-17T17:15:08.853Z,94727.91
2019-05-17T17:17:58.655Z,94724.13
2019-05-17T17:21:01.335Z,94731.64
2019-05-17T17:23:43.633Z,94726.23
2019-05-17T17:26:33.367Z,94737.81
2019-05-17T17:29:16.299Z,94731.06
2019-05-17T17:32:19.436Z,94737.30
2019-05-17T17:34:52.191Z,94745.70
2019-05-17T17:37:42.583Z,94749.84
2019-05-17T17:40:25.476Z,94748.03
2019-05-17T17:46:18.025Z,94751.94
2019-05-17T17:49:07.777Z,94758.56
2019-05-17T17:51:49.948Z,94758.63
2019-05-17T17:54:40.249Z,94754.19
2019-05-17T17:57:23.476Z,94758.71
2019-05-17T18:00:13.478Z,94743.73
2019-05-17T18:02:56.554Z,94762.82
2019-05-17T18:05:46.328Z,94775.30
2019-05-17T18:08:28.758Z,94779.67
2019-05-17T18:11:19.065Z,94790.19
2019-05-17T18:14:12.900Z,94789.20
2019-05-17T18:19:49.548Z,94832.27
2019-05-17T18:22:32.279Z,94839.73
2019-05-17T18:25:22.180Z,94849.03
2019-05-17T18:28:12.442Z,94829.66
2019-05-17T18:31:02.220Z,94850.34
2019-05-17T18:33:52.024Z,94852.64
2019-05-17T18:36:41.964Z,94853.05
2019-05-17T18:39:32.168Z,94858.50
2019-05-17T18:42:22.029Z,94840.28
2019-05-17T18:45:12.106Z,94845.70
2019-05-17T18:48:01.980Z,94836.06
2019-05-17T18:51:10.819Z,94832.92
2019-05-17T18:57:29.878Z,94882.92
2019-05-17T19:00:12.309Z,94869.19
2019-05-17T19:03:02.182Z,94904.48
2019-05-17T19:05:51.910Z,94923.73
2019-05-17T19:08:34.392Z,94934.73
2019-05-17T19:11:24.250Z,94940.90
2019-05-17T19:14:06.561Z,94944.16
2019-05-17T19:16:56.324Z,94941.33
2019-05-17T19:19:38.369Z,94939.27
2019-05-17T19:22:28.163Z,94967.27
2019-05-17T19:25:10.361Z,94970.16
2019-05-17T19:27:41.018Z,94974.98
2019-05-17T19:30:30.754Z,94970.86
2019-05-17T19:33:13.047Z,94962.94
2019-05-17T19:36:02.835Z,94945.88
2019-05-17T19:38:52.590Z,94954.23
2019-05-17T19:41:39.213Z,94946.95
2019-05-17T19:44:21.249Z,94949.24
2019-05-17T19:47:11.019Z,94956.51
2019-05-17T19:49:53.376Z,94960.77
2019-05-17T19:52:43.181Z,94965.86
2019-05-17T19:55:25.971Z,94968.25
2019-05-17T19:58:15.779Z,94956.48
2019-05-17T20:00:58.417Z,94969.11
2019-05-17T20:03:48.154Z,94976.31
2019-05-17T20:06:30.383Z,94988.27
2019-05-17T20:09:20.201Z,94975.56
2019-05-17T20:12:10.002Z,94983.15
2019-05-17T20:20:19.843Z,94994.84
2019-05-17T20:23:09.624Z,94994.88
2019-05-17T20:25:51.852Z,94998.34
2019-05-17T20:28:41.577Z,94998.09
2019-05-17T20:31:31.343Z,94995.94
2019-05-17T20:34:21.073Z,95004.83
2019-05-17T20:37:03.485Z,95001.16
2019-05-17T20:39:53.258Z,94997.59
2019-05-17T20:42:37.623Z,94997.09
2019-05-17T20:45:33.285Z,95001.02
2019-05-17T20:48:11.249Z,94996.66
2019-05-17T20:51:01.034Z,95004.95
2019-05-17T20:53:43.859Z,95002.64
2019-05-17T20:56:33.625Z,94992.08
2019-05-17T20:59:16.367Z,95009.33
2019-05-17T21:02:06.125Z,95009.84
2019-05-17T21:04:48.275Z,94986.17
2019-05-17T21:07:38.023Z,95007.86
2019-05-17T21:10:22.413Z,95010.44
2019-05-17T21:13:12.123Z,95012.98
2019-05-17T21:15:56.447Z,95002.13
2019-05-17T21:18:46.267Z,95011.03
2019-05-17T21:21:29.256Z,94978.90
2019-05-17T21:24:18.987Z,95001.46
2019-05-17T21:27:02.594Z,94992.75
2019-05-17T21:29:52.451Z,94993.19
2019-05-17T21:32:34.854Z,94994.12
2019-05-17T21:35:24.821Z,94983.44
2019-05-17T21:38:11.041Z,94987.28
2019-05-17T21:41:00.807Z,94991.30
2019-05-17T21:43:43.374Z,94985.91
2019-05-17T21:46:33.101Z,94982.08
2019-05-17T21:49:15.276Z,94965.59
2019-05-17T21:52:05.138Z,94992.67
2019-05-17T21:54:53.580Z,94994.55
2019-05-17T21:57:43.334Z,95000.50
2019-05-17T22:00:49.666Z,94990.09
2019-05-17T22:03:39.417Z,94995.73
2019-05-17T22:06:26.453Z,94987.45
2019-05-17T22:09:16.332Z,94993.44
2019-05-17T22:12:00.688Z,94994.95
2019-05-17T22:17:43.438Z,94996.76
2019-05-17T22:26:23.248Z,94999.12
2019-05-17T22:29:05.259Z,94999.47
2019-05-17T22:31:55.026Z,94997.98
2019-05-17T22:34:39.240Z,94991.85
2019-05-17T22:37:22.808Z,94978.45
2019-05-17T22:40:05.362Z,94996.89
2019-05-17T22:42:55.859Z,94995.00
2019-05-17T22:45:45.649Z,94999.47
2019-05-17T22:48:35.457Z,94975.52
2019-05-17T22:51:25.270Z,94989.53
2019-05-17T22:54:15.401Z,94994.25
2019-05-17T22:56:57.962Z,94996.13
2019-05-17T22:59:47.880Z,94985.44
2019-05-17T23:02:38.036Z,94991.59
2019-05-17T23:05:27.895Z,94969.45
2019-05-17T23:08:17.706Z,94997.64
2019-05-17T23:11:07.812Z,94990.47
2019-05-17T23:17:22.726Z,94987.80
2019-05-17T23:20:05.960Z,94986.54
2019-05-17T23:22:56.082Z,94964.66
2019-05-17T23:25:45.962Z,94980.19
2019-05-17T23:28:35.821Z,94980.63
2019-05-17T23:34:13.841Z,94980.89
2019-05-17T23:37:03.919Z,94979.92
2019-05-17T23:39:47.404Z,94980.69
2019-05-17T23:42:37.717Z,94962.06
2019-05-17T23:45:46.619Z,94984.36
2019-05-17T23:48:29.297Z,94985.42
2019-05-17T23:51:19.117Z,94985.27
2019-05-17T23:54:09.018Z,94987.38
2019-05-17T23:56:58.808Z,94988.76
2019-05-17T23:59:48.623Z,94995.30
